South Mason Valley, Nevada Weather observations

Data are for 10 minute period ending at time listed.
 Day   Time   Solar   Ave.   Ave.  Ave.  Vector  Max.   Baro.   Total    
  of    of     Rad.   Air    Rel.  Wind   Wind   Wind  Press.  Precip.   
Year   Day            Temp.  Hum.  Speed  Dir.   Gust                    
2014   (PST)  Kw/m2    F      %     mph   deg.    mph    mb.     in.     
-------------------------------------------------------------------------
 293   15:50   0.22   74.8    19   10.9   279    18.9   872.4    0.00 
 293   16:00   0.16   74.0    20   10.5   279    17.9   872.4    0.00 
 293   16:10   0.06   71.4    22   10.6   281    18.2   872.3    0.00 
 293   16:20   0.08   71.1    22    9.6   286    16.0   872.3    0.00 
 293   16:30   0.10   70.9    22    7.9   282    12.3   872.1    0.00 
 293   16:40   0.09   70.5    22    7.0   272    10.2   872.0    0.00 
 293   16:50   0.07   70.6    22    7.7   255    11.8   871.9    0.00 
 293   17:00   0.04   70.7    22    7.5   253    12.6   871.9    0.00 
 293   17:10   0.02   69.8    22    6.3   252    10.4   871.8    0.00 
 293   17:20   0.01   68.9    22    8.1   249    12.9   871.6    0.00 
 293   17:30   0.00   68.1    22    7.8   248    12.1   871.6    0.00 
 293   17:40   0.00   67.6    22    8.2   254    13.6   871.7    0.00 
 293   17:50   0.00   66.7    22    7.4   256    16.4   871.8    0.00 
 293   18:00   0.00   66.7    21    9.9   256    17.8   871.8    0.00 
 293   18:10   0.00   66.1    23   11.3   261    17.8   871.7    0.00 
 293   18:20   0.00   65.3    25   12.1   258    21.0   871.6    0.00 
 293   18:30   0.00   64.8    27   13.7   258    22.6   871.6    0.00 
 293   18:40   0.00   64.7    27   15.6   259    24.5   871.5    0.00 
 293   18:50   0.00   64.8    27   15.1   252    23.6   871.4    0.00 
 293   19:00   0.00   64.8    26   15.1   248    23.8   871.4    0.00 
 293   19:10   0.00   64.8    26   16.2   249    25.9   871.4    0.00 
 293   19:20   0.00   64.4    26   15.9   249    23.8   871.5    0.00 
 293   19:30   0.00   64.1    27   16.0   252    26.5   871.7    0.00 
 293   19:40   0.00   64.0    27   15.6   250    24.9   871.8    0.00 
 293   19:50   0.00   64.0    27   16.4   248    24.0   871.9    0.00 
 293   20:00   0.00   63.6    28   15.1   247    27.0   872.1    0.00 
 293   20:10   0.00   63.0    29   15.1   249    24.2   872.3    0.00 
 293   20:20   0.00   62.6    28   15.3   253    27.5   872.5    0.00 
 293   20:30   0.00   62.5    28   16.8   252    25.7   872.7    0.00 
 293   20:40   0.00   62.5    29   15.8   249    24.0   872.8    0.00 
 293   20:50   0.00   62.5    29   17.4   256    24.9   873.1    0.00 
 293   21:00   0.00   62.2    30   15.4   262    22.4   873.4    0.00 
 293   21:10   0.00   61.5    32   14.2   263    23.5   873.7    0.00 
 293   21:20   0.00   61.0    33   14.2   262    21.6   874.0    0.00 
 293   21:30   0.00   59.4    35    7.5   272    14.2   874.3    0.00 
 293   21:40   0.00   57.0    39    5.4   277     9.3   874.5    0.00 
 293   21:50   0.00   57.8    36    8.2   269    16.4   874.7    0.00 
 293   22:00   0.00   59.4    32    8.9   266    14.5   874.9    0.00 
 293   22:10   0.00   58.6    32    7.2   277    12.4   875.0    0.00 
 293   22:20   0.00   57.1    38    9.1   308    15.4   875.2    0.00 
 293   22:30   0.00   56.1    43    7.6   321    12.7   875.4    0.00 
 293   22:40   0.00   55.3    46    5.5   313    11.7   875.5    0.00 
 293   22:50   0.00   54.8    48    8.9   276    15.3   875.7    0.00 
 293   23:00   0.00   55.5    46   16.7   274    27.2   875.9    0.00 
 293   23:10   0.00   55.2    46   16.9   279    25.4   876.3    0.00 
 293   23:20   0.00   54.1    48   13.3   284    20.0   876.4    0.00 
 293   23:30   0.00   52.8    51   10.8   294    20.0   876.6    0.00 
 293   23:40   0.00   52.0    53    8.4   298    15.8   876.6    0.00 
 293   23:50   0.00   51.9    51   11.5   268    19.6   876.5    0.00 
 294    0:00   0.00   52.4    49   15.7   267    23.5   876.6    0.00 
 294    0:10   0.00   52.5    48   15.4   265    25.6   876.8    0.00 
 294    0:20   0.00   52.2    48   13.0   267    23.7   877.0    0.00 
 294    0:30   0.00   52.2    47   13.9   268    20.0   877.2    0.00 
 294    0:40   0.00   51.9    47   12.3   283    20.0   877.6    0.00 
 294    0:50   0.00   51.0    49   10.1   296    17.0   878.0    0.00 
 294    1:00   0.00   50.5    50    9.5   291    15.2   878.0    0.00 
 294    1:10   0.00   50.5    50    9.7   292    15.7   878.0    0.00 
 294    1:20   0.00   49.8    50   11.0   306    16.6   878.2    0.00 
 294    1:30   0.00   50.1    47   10.2   290    16.8   878.2    0.00 
 294    1:40   0.00   50.5    44   14.2   267    20.2   877.8    0.00 
 294    1:50   0.00   50.0    44   13.1   266    19.0   877.8    0.00 
 294    2:00   0.00   49.4    45   10.7   272    16.6   878.1    0.00 
 294    2:10   0.00   48.4    46    7.6   291    13.3   878.4    0.00 
 294    2:20   0.00   46.4    48    4.3   324     6.9   878.8    0.00 
 294    2:30   0.00   47.2    43    4.8   279     8.1   878.9    0.00 
 294    2:40   0.00   46.8    44    5.2   312     8.9   879.0    0.00 
 294    2:50   0.00   46.1    45    6.4   316     9.6   878.7    0.00 
 294    3:00   0.00   45.8    44    6.8   311    10.6   878.6    0.00 
 294    3:10   0.00   46.8    41    7.7   323    12.7   878.8    0.00 
 294    3:20   0.00   46.3    42    6.5   330    10.0   879.1    0.00 
 294    3:30   0.00   46.2    43    6.1   302    10.6   879.1    0.00 
 294    3:40   0.00   45.2    44    6.1   324     9.5   879.1    0.00 
 294    3:50   0.00   45.3    46    7.6     7    11.4   879.3    0.00 
 294    4:00   0.00   45.3    47    7.4   354    11.4   879.4    0.00 
 294    4:10   0.00   44.4    49    6.9   333     9.6   879.4    0.00 
 294    4:20   0.00   43.1    51    4.5   341     7.7   879.5    0.00 
 294    4:30   0.00   40.6    57    3.3     8     4.5   879.7    0.00 
 294    4:40   0.00   39.6    58    3.4   345     5.0   879.9    0.00 
 294    4:50   0.00   37.8    63    4.5   334     6.7   879.9    0.00 
 294    5:00   0.00   37.2    65    4.9    12     8.5   880.1    0.00 
 294    5:10   0.00   38.3    64    5.9    19     8.6   880.3    0.00 
 294    5:20   0.00   39.2    61    5.5   348     7.5   880.3    0.00 
 294    5:30   0.00   37.9    64    4.4   339     5.6   880.3    0.00 
 294    5:40   0.00   36.7    66    3.4    34     5.6   880.6    0.00 
 294    5:50   0.00   36.8    66    1.4   133     2.4   880.7    0.00 
 294    6:00   0.00   35.9    67    2.5   272     4.2   880.7    0.00 
 294    6:10   0.00   32.9    74    3.4   332     4.0   880.8    0.00 
 294    6:20   0.01   33.5    73    3.2   301     7.2   881.1    0.00 
 294    6:30   0.02   35.0    72    3.9   253     6.3   881.1    0.00 
 294    6:40   0.04   35.0    72    2.7   296     4.8   881.1    0.00 
 294    6:50   0.07   36.4    70    2.3   282     3.3   881.4    0.00 
 294    7:00   0.09   38.6    66    2.2   134     6.9   881.5    0.00 
 294    7:10   0.12   41.1    62    3.2   206     4.5   881.5    0.00 
 294    7:20   0.14   42.7    59    1.8   248     5.0   881.6    0.00 
 294    7:30   0.17   44.3    54    4.2   113     7.9   881.9    0.00 
 294    7:40   0.20   46.8    49    2.0   160     3.9   881.7    0.00 
 294    7:50   0.23   47.9    47    2.1   107     3.6   881.9    0.00 
 294    8:00   0.27   48.7    45    2.1   115     4.9   882.1    0.00 
 294    8:10   0.29   50.3    43    1.5    33     3.1   882.0    0.00 
 294    8:20   0.34   50.5    42    2.0    32     4.6   882.2    0.00 
 294    8:30   0.38   51.1    42    1.3   329     4.0   882.2    0.00 
 294    8:40   0.41   51.6    42    1.9   323     5.6   882.2    0.00 
 294    8:50   0.44   53.0    40    1.1    16     4.1   882.1    0.00 
 294    9:00   0.45   52.7    41    3.7   310     7.5   882.1    0.00 
 294    9:10   0.47   52.6    40    2.4   351     7.6   882.0    0.00 
 294    9:20   0.48   52.9    39    2.9   326     5.7   881.9    0.00 
 294    9:30   0.50   53.5    38    2.4   358     5.0   881.8    0.00 
 294    9:40   0.57   54.1    37    2.9   330     8.3   881.8    0.00 
 294    9:50   0.62   54.6    38    3.8   329     7.0   881.7    0.00 
 294   10:00   0.59   55.4    36    2.1   308     5.3   881.5    0.00 
 294   10:10   0.62   56.7    33    2.0   116     5.0   881.4    0.00 
 294   10:20   0.67   56.9    33    2.8   184     7.2   881.3    0.00 
 294   10:30   0.67   56.3    34    4.1   359     8.4   881.3    0.00 
 294   10:40   0.65   57.1    34    3.4   322     7.7   881.3    0.00 
 294   10:50   0.66   57.0    34    3.4    30     8.0   881.3    0.00 
 294   11:00   0.66   57.1    34    4.5    79     8.7   881.2    0.00 
 294   11:10   0.67   57.6    33    4.8    73     9.5   881.1    0.00 
 294   11:20   0.68   57.6    32    5.2    85    10.8   881.0    0.00 
 294   11:30   0.68   57.4    33    4.7   109     9.2   880.9    0.00 
 294   11:40   0.68   57.8    33    4.1    99    11.3   880.7    0.00 
 294   11:50   0.68   58.2    31    3.4   102     8.8   880.7    0.00 
 294   12:00   0.66   58.2    31    3.7    88     9.9   880.6    0.00 
 294   12:10   0.64   58.5    31    2.9   126     8.4   880.5    0.00 
 294   12:20   0.65   58.9    30    3.8    46     6.6   880.4    0.00 
 294   12:30   0.61   58.9    29    3.6    31    10.2   880.2    0.00 
 294   12:40   0.63   59.3    29    2.8    90     6.7   880.1    0.00 
 294   12:50   0.69   59.6    29    4.1    90     8.9   879.9    0.00 
 294   13:00   0.69   59.9    29    3.3     4     7.8   879.9    0.00 
 294   13:10   0.64   60.2    29    4.9   355     8.6   879.9    0.00 
 294   13:20   0.53   59.9    28    3.9   358     9.3   879.9    0.00 
 294   13:30   0.61   60.4    28    3.7     4     8.1   879.9    0.00 
 294   13:40   0.56   60.5    27    5.2    40    10.1   879.7    0.00 
 294   13:50   0.55   60.2    28    5.4   350     9.7   879.9    0.00 
 294   14:00   0.52   61.1    25    3.3    33     6.6   879.8    0.00 
 294   14:10   0.44   60.9    26    6.0     9    10.7   879.8    0.00 
 294   14:20   0.44   60.3    26    4.3    20     8.8   879.7    0.00 
 294   14:30   0.44   61.0    26    5.5   354     9.9   879.5    0.00 
 294   14:40   0.39   61.2    25    5.1   348     9.6   879.5    0.00 
 294   14:50   0.31   59.8    26    3.9    14    11.0   879.5    0.00 
 294   15:00   0.26   60.2    26    4.6     7     8.7   879.6    0.00 
 294   15:10   0.32   59.9    26    5.1    22     8.5   879.5    0.00 
 294   15:20   0.25   59.6    27    5.3     3     8.3   879.3    0.00 
 294   15:30   0.28   59.7    26    6.3    11     9.6   879.1    0.00 
 294   15:40   0.14   58.6    27    6.7    13    11.1   879.1    0.00 

Return to south Mason Valley graphs page.


Western Regional Climate Center,wrcc@dri.edu